Terminal Aerodrome Forecast
Issued by NWS

Home | Current Version | Previous Version | Text Only | Print | Product List | Glossary Off
Versions: 1 2 3 4 5 6 7 8 9 10 11 12 13

258
FTUS42 KMHX 230521
TAFISO
TAF
KISO 230521Z 2306/2406 VRB03KT P6SM SCT250
      TEMPO 2309/2312 4SM BR
     FM231400 05007KT P6SM FEW050
     FM240000 06003KT P6SM SKC
      AMD LTD TO CLD VIS AND WIND=

USA.gov is the U.S. government's official web portal to all federal, state and local government web resources and services.